Time;durP1;ratioP1;P1;durP2;ratioP2;P2;SDS_P1;SDS_P2;PMS_P1;PMS_P2;Temp;Humidity;BMP_temperature;BMP_pressure;BME280_temperature;BME280_humidity;BME280_pressure;Samples;Min_cycle;Max_cycle;Signal;HPM_P1;HPM_P2
2021/01/30 00:00:22;;;;;;;12.00;7.20;;;1.00;99.90;;;;;;5007343;28;20519;-75
2021/01/30 00:02:49;;;;;;;10.05;6.15;;;1.00;99.90;;;;;;5017200;28;20057;-76
2021/01/30 00:05:15;;;;;;;6.68;3.92;;;1.00;99.90;;;;;;5006189;28;20452;-76
2021/01/30 00:07:41;;;;;;;11.27;7.40;;;1.00;99.90;;;;;;5015334;28;21636;-76
2021/01/30 00:10:08;;;;;;;13.07;7.85;;;1.10;99.90;;;;;;5016344;28;20395;-76
2021/01/30 00:12:35;;;;;;;13.10;7.00;;;1.00;99.90;;;;;;5012107;28;20053;-76
2021/01/30 00:15:03;;;;;;;12.05;7.20;;;1.10;99.90;;;;;;5007532;28;20554;-76
2021/01/30 00:17:29;;;;;;;11.52;7.63;;;1.10;99.90;;;;;;5011092;28;20064;-76
2021/01/30 00:19:55;;;;;;;15.52;9.05;;;1.10;99.90;;;;;;5006565;28;20055;-76
2021/01/30 00:22:22;;;;;;;17.42;10.23;;;1.00;99.90;;;;;;5016397;28;20071;-76
2021/01/30 00:24:49;;;;;;;27.98;12.57;;;1.10;99.90;;;;;;5000238;28;20067;-76
2021/01/30 00:27:19;;;;;;;19.98;11.07;;;1.10;99.90;;;;;;5013238;28;20055;-76
2021/01/30 00:29:47;;;;;;;14.50;8.10;;;1.10;99.90;;;;;;5017719;28;20056;-76
2021/01/30 00:32:16;;;;;;;11.82;6.97;;;1.10;99.90;;;;;;5014516;28;20056;-76
2021/01/30 00:34:44;;;;;;;11.07;7.70;;;1.10;99.90;;;;;;5008083;28;20397;-76
2021/01/30 00:37:14;;;;;;;13.35;7.90;;;1.10;99.90;;;;;;5015383;28;20049;-76
2021/01/30 00:39:42;;;;;;;18.25;8.80;;;1.10;99.90;;;;;;5009019;28;20053;-76
2021/01/30 00:42:09;;;;;;;13.85;7.20;;;1.10;99.90;;;;;;5013440;28;20067;-76
2021/01/30 00:44:35;;;;;;;7.50;5.25;;;1.10;99.90;;;;;;5009705;28;20045;-76
2021/01/30 00:47:02;;;;;;;10.43;7.30;;;1.10;99.90;;;;;;5014874;28;20132;-76
2021/01/30 00:49:28;;;;;;;11.15;7.75;;;1.10;99.90;;;;;;4997965;28;20049;-76
2021/01/30 00:51:54;;;;;;;8.18;5.20;;;1.10;99.90;;;;;;5014876;28;20485;-76
2021/01/30 00:54:21;;;;;;;8.93;6.15;;;1.10;99.90;;;;;;5017164;28;20518;-76
2021/01/30 00:56:49;;;;;;;7.43;3.72;;;1.10;99.90;;;;;;5015417;28;20373;-76
2021/01/30 00:59:16;;;;;;;8.10;5.38;;;1.10;99.90;;;;;;5007151;28;20051;-76
2021/01/30 01:01:42;;;;;;;5.65;3.58;;;1.10;99.90;;;;;;4998630;28;20045;-76
2021/01/30 01:04:09;;;;;;;5.68;4.30;;;1.20;99.90;;;;;;5018841;28;20107;-76
2021/01/30 01:06:36;;;;;;;9.48;5.90;;;1.20;99.90;;;;;;4997444;28;20064;-76
2021/01/30 01:09:07;;;;;;;9.73;6.15;;;1.20;99.90;;;;;;5018314;28;20053;-76
2021/01/30 01:11:37;;;;;;;9.85;5.78;;;1.20;99.90;;;;;;5017547;28;20128;-76
2021/01/30 01:14:04;;;;;;;9.05;5.65;;;1.20;99.90;;;;;;5013595;28;20041;-76
2021/01/30 01:16:31;;;;;;;3.50;3.10;;;1.20;99.90;;;;;;5009668;28;20060;-76
2021/01/30 01:18:58;;;;;;;7.90;5.43;;;1.20;99.90;;;;;;5008903;28;20404;-76
2021/01/30 01:21:24;;;;;;;10.27;5.82;;;1.20;99.90;;;;;;5018897;28;20564;-76
2021/01/30 01:23:51;;;;;;;9.48;5.60;;;1.20;99.90;;;;;;5011786;28;20041;-76
2021/01/30 01:26:18;;;;;;;8.40;6.05;;;1.20;99.90;;;;;;5011630;28;20053;-76
2021/01/30 01:28:46;;;;;;;9.27;6.00;;;1.10;99.90;;;;;;5003125;28;20057;-76
2021/01/30 01:31:13;;;;;;;8.57;5.82;;;1.10;99.90;;;;;;5016713;28;21687;-76
2021/01/30 01:33:40;;;;;;;12.13;5.57;;;1.10;99.90;;;;;;5021129;28;20049;-76
2021/01/30 01:36:07;;;;;;;8.57;4.78;;;1.10;99.90;;;;;;5016724;28;20495;-76
2021/01/30 01:38:34;;;;;;;10.05;4.88;;;1.10;99.90;;;;;;5000721;28;20064;-76
2021/01/30 01:41:01;;;;;;;9.63;5.47;;;1.10;99.90;;;;;;5017802;28;20645;-76
2021/01/30 01:43:29;;;;;;;5.55;4.38;;;1.10;99.90;;;;;;5021216;28;20049;-76
2021/01/30 01:46:17;;;;;;;6.78;4.40;;;1.10;99.90;;;;;;5019756;28;20382;-76
2021/01/30 01:49:10;;;;;;;9.48;5.15;;;1.10;99.90;;;;;;5013530;28;20449;-76
2021/01/30 01:52:02;;;;;;;8.30;5.28;;;1.10;99.90;;;;;;5018567;28;20060;-76
2021/01/30 01:54:31;;;;;;;8.93;4.97;;;1.10;99.90;;;;;;5019527;28;20112;-76
2021/01/30 01:57:06;;;;;;;7.28;3.15;;;1.20;99.90;;;;;;5019843;28;20045;-76
2021/01/30 01:59:36;;;;;;;7.20;3.97;;;1.10;99.90;;;;;;5018018;28;20046;-76
2021/01/30 02:02:03;;;;;;;6.53;3.80;;;1.20;99.90;;;;;;5020220;28;20404;-76
2021/01/30 02:04:29;;;;;;;5.57;3.78;;;1.20;99.90;;;;;;5020015;28;20046;-76
2021/01/30 02:06:55;;;;;;;6.50;3.60;;;1.20;99.90;;;;;;5018795;28;24599;-77
2021/01/30 02:09:24;;;;;;;8.43;4.60;;;1.10;99.90;;;;;;5019186;28;20041;-76
2021/01/30 02:12:11;;;;;;;3.22;2.72;;;1.10;99.90;;;;;;5008771;28;20060;-77
2021/01/30 02:14:46;;;;;;;5.18;3.58;;;1.00;99.90;;;;;;5002459;28;20046;-77
2021/01/30 02:17:37;;;;;;;6.25;3.60;;;0.90;99.90;;;;;;5014156;28;20061;-76
2021/01/30 02:20:36;;;;;;;7.35;4.22;;;0.90;99.90;;;;;;5017756;28;20053;-77
2021/01/30 02:23:39;;;;;;;9.75;3.72;;;0.80;99.90;;;;;;5018345;28;20500;-77
2021/01/30 02:26:24;;;;;;;9.40;3.35;;;0.80;99.90;;;;;;5017670;28;20052;-77
2021/01/30 02:29:18;;;;;;;8.57;3.45;;;0.80;99.90;;;;;;5017180;28;20056;-76
2021/01/30 02:32:14;;;;;;;5.90;3.45;;;0.80;99.90;;;;;;5021220;28;20053;-76
2021/01/30 02:35:09;;;;;;;5.15;3.45;;;0.70;99.90;;;;;;5015051;28;20045;-76
2021/01/30 02:37:42;;;;;;;10.05;4.05;;;0.60;99.90;;;;;;5017666;28;20049;-76
2021/01/30 02:40:13;;;;;;;8.25;3.90;;;0.60;99.90;;;;;;5018953;28;20502;-76
2021/01/30 02:43:06;;;;;;;10.70;4.22;;;0.50;99.90;;;;;;5033207;28;20122;-76
2021/01/30 02:45:36;;;;;;;4.68;3.20;;;0.50;99.90;;;;;;5036071;28;20064;-77
2021/01/30 02:48:08;;;;;;;8.05;3.65;;;0.40;99.90;;;;;;5018698;28;20053;-76
2021/01/30 02:50:45;;;;;;;6.60;3.80;;;0.30;99.90;;;;;;5016622;28;20053;-77
2021/01/30 02:53:18;;;;;;;7.22;3.75;;;0.30;99.90;;;;;;5019440;28;20042;-76
2021/01/30 02:55:44;;;;;;;6.75;3.67;;;0.20;99.90;;;;;;5012271;28;20437;-76
2021/01/30 02:58:13;;;;;;;7.15;3.72;;;0.20;99.90;;;;;;5008324;28;20057;-76
2021/01/30 03:00:40;;;;;;;6.95;4.40;;;0.20;99.90;;;;;;5017834;28;20206;-76
2021/01/30 03:03:07;;;;;;;8.90;4.00;;;0.10;99.90;;;;;;5018055;28;20536;-77
2021/01/30 03:05:33;;;;;;;7.80;3.45;;;0.10;99.90;;;;;;5016799;28;20057;-76
2021/01/30 03:08:07;;;;;;;6.63;4.20;;;0.00;99.90;;;;;;5031404;28;20068;-77
2021/01/30 03:11:13;;;;;;;9.90;4.15;;;0.00;99.90;;;;;;5034947;28;20049;-76
2021/01/30 03:14:04;;;;;;;8.02;4.45;;;0.00;99.90;;;;;;5011243;28;20379;-76
2021/01/30 03:16:35;;;;;;;9.98;4.47;;;-0.10;99.90;;;;;;5032206;28;20051;-76
2021/01/30 03:19:15;;;;;;;6.88;3.58;;;-0.10;99.90;;;;;;5017614;28;20160;-76
2021/01/30 03:21:44;;;;;;;8.70;4.25;;;-0.10;99.90;;;;;;5016834;28;20544;-76
2021/01/30 03:24:10;;;;;;;10.07;3.35;;;-0.10;99.90;;;;;;5019233;28;20548;-77
2021/01/30 03:26:44;;;;;;;11.50;5.18;;;-0.10;99.90;;;;;;5016254;28;20403;-76
2021/01/30 03:29:12;;;;;;;;;;;-0.10;99.90;;;;;;5017794;28;20383;-77
2021/01/30 03:31:38;;;;;;;12.68;4.57;;;-0.10;99.90;;;;;;5018202;28;19925;-76
2021/01/30 03:34:06;;;;;;;8.73;4.68;;;-0.20;99.90;;;;;;5013322;28;20049;-76
2021/01/30 03:36:33;;;;;;;11.85;5.75;;;-0.10;99.90;;;;;;5013146;28;20056;-77
2021/01/30 03:38:59;;;;;;;8.90;4.65;;;0.00;99.90;;;;;;5023213;28;20050;-77
2021/01/30 03:41:25;;;;;;;10.32;4.80;;;0.10;99.90;;;;;;5015266;28;20412;-76
2021/01/30 03:43:52;;;;;;;10.52;4.82;;;0.10;99.90;;;;;;5018710;28;20049;-76
2021/01/30 03:46:18;;;;;;;7.13;2.88;;;0.20;99.90;;;;;;5034778;28;20064;-77
2021/01/30 03:48:44;;;;;;;9.00;4.45;;;0.30;99.90;;;;;;5014959;28;20058;-76
2021/01/30 03:51:10;;;;;;;8.15;4.78;;;0.40;99.90;;;;;;5014789;28;20045;-77
2021/01/30 03:53:37;;;;;;;11.27;6.00;;;0.40;99.90;;;;;;5012285;28;21710;-77
2021/01/30 03:56:04;;;;;;;8.95;4.93;;;0.50;99.90;;;;;;5012390;28;20056;-76
2021/01/30 03:58:30;;;;;;;10.55;5.25;;;0.50;99.90;;;;;;5009960;28;20049;-77
2021/01/30 04:00:56;;;;;;;9.43;5.90;;;0.60;99.90;;;;;;5014928;28;20496;-76
2021/01/30 04:03:22;;;;;;;7.72;4.90;;;0.60;99.90;;;;;;5016397;28;20057;-76
2021/01/30 04:05:48;;;;;;;9.55;5.20;;;0.70;99.90;;;;;;5016131;28;20139;-76
2021/01/30 04:08:15;;;;;;;6.45;4.22;;;0.70;99.90;;;;;;5015631;28;20049;-76
2021/01/30 04:10:41;;;;;;;8.32;4.05;;;0.70;99.90;;;;;;5014833;28;20136;-77
2021/01/30 04:13:10;;;;;;;9.65;5.05;;;0.70;99.90;;;;;;5008285;28;20049;-77
2021/01/30 04:15:39;;;;;;;7.45;4.38;;;0.70;99.90;;;;;;5014804;28;20079;-77
2021/01/30 04:18:06;;;;;;;7.97;4.47;;;0.80;99.90;;;;;;5013666;28;20475;-76
2021/01/30 04:20:32;;;;;;;9.27;4.68;;;0.80;99.90;;;;;;5010611;28;20060;-77
2021/01/30 04:23:00;;;;;;;9.63;4.78;;;0.80;99.90;;;;;;5005392;28;20496;-77
2021/01/30 04:25:27;;;;;;;8.45;4.60;;;0.80;99.90;;;;;;5008504;28;20049;-76
2021/01/30 04:27:54;;;;;;;10.55;4.63;;;0.80;99.90;;;;;;5014838;28;20049;-77
2021/01/30 04:30:24;;;;;;;9.30;5.10;;;0.80;99.90;;;;;;5013595;28;20057;-77
2021/01/30 04:32:51;;;;;;;9.32;4.88;;;0.80;99.90;;;;;;5009341;28;20057;-77
2021/01/30 04:35:24;;;;;;;8.45;4.40;;;0.90;99.90;;;;;;5019792;28;20061;-76
2021/01/30 04:37:50;;;;;;;7.57;4.00;;;0.90;99.90;;;;;;5016770;28;20052;-77
2021/01/30 04:40:36;;;;;;;6.28;4.10;;;0.90;99.90;;;;;;5015854;28;20064;-77
2021/01/30 04:43:12;;;;;;;7.60;3.88;;;0.90;99.90;;;;;;5017326;28;20053;-76
2021/01/30 04:46:00;;;;;;;10.30;4.38;;;0.90;99.90;;;;;;5018265;28;20050;-77
2021/01/30 04:48:44;;;;;;;11.55;4.97;;;0.90;99.90;;;;;;5013478;28;20055;-76
2021/01/30 04:51:15;;;;;;;;;;;0.80;99.90;;;;;;5017871;28;20053;-77
2021/01/30 04:54:04;;;;;;;8.70;4.20;;;0.90;99.90;;;;;;5018888;28;19936;-76
2021/01/30 04:56:59;;;;;;;8.38;4.47;;;0.90;99.90;;;;;;5013554;28;20054;-77
2021/01/30 04:59:52;;;;;;;8.02;4.60;;;0.90;99.90;;;;;;5014073;28;20048;-77
2021/01/30 05:02:37;;;;;;;8.25;4.43;;;0.90;99.90;;;;;;5018538;28;20064;-77
2021/01/30 05:05:06;;;;;;;9.18;4.90;;;0.90;99.90;;;;;;5012179;28;20061;-77
2021/01/30 05:07:44;;;;;;;10.07;4.78;;;0.90;99.90;;;;;;5011965;28;20061;-77
2021/01/30 05:10:50;;;;;;;8.75;4.97;;;0.80;99.90;;;;;;5018312;28;20409;-77
2021/01/30 05:13:34;;;;;;;10.57;4.68;;;0.80;99.90;;;;;;4977619;28;20038;-76
2021/01/30 05:16:18;;;;;;;10.18;5.07;;;0.80;99.90;;;;;;5027100;28;20046;-76
2021/01/30 05:18:54;;;;;;;9.68;5.10;;;0.80;99.90;;;;;;5011679;28;20132;-77
2021/01/30 05:21:42;;;;;;;8.60;4.38;;;0.80;99.90;;;;;;5015201;28;20053;-77
2021/01/30 05:24:10;;;;;;;7.85;4.07;;;0.80;99.90;;;;;;5006773;28;20056;-76
2021/01/30 05:26:45;;;;;;;7.38;4.35;;;0.90;99.90;;;;;;5014879;28;20060;-77
2021/01/30 05:29:53;;;;;;;16.50;5.43;;;0.90;99.90;;;;;;5013723;28;20049;-77
2021/01/30 05:33:09;;;;;;;8.63;4.50;;;0.90;99.90;;;;;;5031197;28;20056;-76
2021/01/30 05:35:49;;;;;;;7.90;4.40;;;0.90;99.90;;;;;;4948515;28;20414;-77
2021/01/30 05:38:31;;;;;;;8.77;5.20;;;0.90;99.90;;;;;;4948831;28;20054;-76
2021/01/30 05:41:07;;;;;;;5.35;3.63;;;0.90;99.90;;;;;;4998959;28;20053;-77
2021/01/30 05:43:53;;;;;;;5.15;3.30;;;0.90;99.90;;;;;;5033761;28;20107;-77
2021/01/30 05:46:27;;;;;;;5.38;3.50;;;0.90;99.90;;;;;;5007155;28;20073;-77
2021/01/30 05:48:56;;;;;;;5.50;3.53;;;0.90;99.90;;;;;;5018114;28;20155;-76
2021/01/30 05:51:46;;;;;;;7.28;4.15;;;0.90;99.90;;;;;;5014523;28;20060;-77
2021/01/30 05:54:13;;;;;;;8.27;4.45;;;0.80;99.90;;;;;;5019084;28;20408;-76
2021/01/30 05:56:41;;;;;;;8.20;4.00;;;0.80;99.90;;;;;;5019182;28;20064;-76
2021/01/30 05:59:11;;;;;;;8.95;4.95;;;0.80;99.90;;;;;;5016072;28;20052;-76
2021/01/30 06:01:37;;;;;;;8.93;4.97;;;0.80;99.90;;;;;;5016628;28;20048;-77
2021/01/30 06:04:09;;;;;;;10.40;4.80;;;0.80;99.90;;;;;;5019335;28;20484;-76
2021/01/30 06:06:41;;;;;;;12.27;4.65;;;0.80;99.90;;;;;;5021240;28;20049;-76
2021/01/30 06:09:11;;;;;;;8.43;4.82;;;0.80;99.90;;;;;;5020644;28;20490;-77
2021/01/30 06:11:49;;;;;;;7.50;3.88;;;0.80;99.90;;;;;;5019209;28;20045;-76
2021/01/30 06:14:28;;;;;;;8.63;4.55;;;0.80;99.90;;;;;;5021778;28;20473;-76
2021/01/30 06:16:59;;;;;;;10.75;5.45;;;0.80;99.90;;;;;;5018593;28;20153;-77
2021/01/30 06:19:34;;;;;;;6.88;4.18;;;0.80;99.90;;;;;;5017679;28;20500;-76
2021/01/30 06:22:27;;;;;;;9.40;5.32;;;0.80;99.90;;;;;;5016856;28;20055;-76
2021/01/30 06:24:53;;;;;;;12.27;4.53;;;0.80;99.90;;;;;;5013602;28;20496;-76
2021/01/30 06:27:54;;;;;;;12.52;4.60;;;0.80;99.90;;;;;;5021560;28;20057;-75
2021/01/30 06:30:37;;;;;;;8.30;4.55;;;0.80;99.90;;;;;;5015087;28;20686;-76
2021/01/30 06:33:28;;;;;;;8.13;4.43;;;0.80;99.90;;;;;;5019746;28;20507;-76
2021/01/30 06:36:09;;;;;;;10.02;5.13;;;0.80;99.90;;;;;;5019388;28;20560;-77
2021/01/30 06:38:42;;;;;;;8.35;4.50;;;0.80;99.90;;;;;;5019184;28;20081;-76
2021/01/30 06:41:21;;;;;;;9.85;5.68;;;0.80;99.90;;;;;;5019370;28;20152;-75
2021/01/30 06:43:53;;;;;;;11.65;5.75;;;0.80;99.90;;;;;;5019577;28;20071;-76
2021/01/30 06:46:23;;;;;;;8.70;5.50;;;0.80;99.90;;;;;;5019598;28;20049;-77
2021/01/30 06:48:54;;;;;;;9.45;4.97;;;0.80;99.90;;;;;;5020031;28;20081;-76
2021/01/30 06:51:35;;;;;;;9.30;5.25;;;0.70;99.90;;;;;;5020287;28;20061;-77
2021/01/30 06:54:22;;;;;;;9.98;5.47;;;0.70;99.90;;;;;;5021633;28;20057;-76
2021/01/30 06:57:08;;;;;;;11.75;6.05;;;0.70;99.90;;;;;;5016566;28;20381;-78
2021/01/30 06:59:51;;;;;;;12.63;5.65;;;0.70;99.90;;;;;;5034944;28;20052;-76
2021/01/30 07:02:26;;;;;;;7.38;4.60;;;0.70;99.90;;;;;;5033485;28;20081;-76
2021/01/30 07:05:28;;;;;;;11.98;6.18;;;0.70;99.90;;;;;;5014325;28;20133;-77
2021/01/30 07:08:10;;;;;;;9.48;5.18;;;0.70;99.90;;;;;;5002622;28;20489;-77
2021/01/30 07:11:30;;;;;;;9.50;5.22;;;0.70;99.90;;;;;;5017836;28;20052;-77
2021/01/30 07:14:07;;;;;;;8.57;4.60;;;0.70;99.90;;;;;;4934625;28;20134;-77
2021/01/30 07:16:48;;;;;;;11.38;5.38;;;0.70;99.90;;;;;;5011404;28;20042;-76
2021/01/30 07:19:23;;;;;;;12.40;6.25;;;0.70;99.90;;;;;;5013505;28;20045;-76
2021/01/30 07:21:56;;;;;;;10.40;5.68;;;0.70;99.90;;;;;;5013402;28;20148;-77
2021/01/30 07:24:26;;;;;;;10.88;5.35;;;0.70;99.90;;;;;;5012037;28;20045;-77
2021/01/30 07:27:00;;;;;;;12.77;5.75;;;0.70;99.90;;;;;;5012923;28;20049;-77
2021/01/30 07:30:01;;;;;;;10.18;5.32;;;0.70;99.90;;;;;;5013939;28;20404;-77
2021/01/30 07:32:59;;;;;;;11.35;6.20;;;0.70;99.90;;;;;;5017029;28;20152;-77
2021/01/30 07:35:32;;;;;;;10.02;4.88;;;0.70;99.90;;;;;;5008791;28;20463;-78
2021/01/30 07:38:06;;;;;;;13.50;6.05;;;0.70;99.90;;;;;;5029985;28;20075;-77
2021/01/30 07:40:44;;;;;;;;;;;0.80;99.90;;;;;;5010511;28;20503;-77
2021/01/30 07:43:41;;;;;;;10.73;5.45;;;0.80;99.90;;;;;;4993939;28;20011;-77
2021/01/30 07:46:25;;;;;;;10.80;5.53;;;0.80;99.90;;;;;;5020233;28;20058;-78
2021/01/30 07:48:58;;;;;;;11.93;6.53;;;0.80;99.90;;;;;;5021636;28;20053;-78
2021/01/30 07:51:33;;;;;;;12.20;5.80;;;0.80;99.90;;;;;;5020061;28;20053;-82
2021/01/30 07:54:02;;;;;;;12.68;6.85;;;0.80;99.90;;;;;;5000108;28;20492;-79
2021/01/30 07:56:34;;;;;;;15.63;7.55;;;0.80;99.90;;;;;;5017698;28;20049;-77
2021/01/30 07:59:30;;;;;;;13.35;6.50;;;0.80;99.90;;;;;;5019868;28;20057;-78
2021/01/30 08:02:24;;;;;;;10.82;5.72;;;0.90;99.90;;;;;;5023201;28;20042;-78
2021/01/30 08:05:15;;;;;;;11.87;6.10;;;0.90;99.90;;;;;;5031589;28;20045;-78
2021/01/30 08:08:03;;;;;;;10.13;5.82;;;0.90;99.90;;;;;;5013962;28;20398;-78
2021/01/30 08:10:38;;;;;;;13.63;5.93;;;0.90;99.90;;;;;;5021470;28;20045;-78
2021/01/30 08:13:33;;;;;;;9.93;5.45;;;0.90;99.90;;;;;;5020759;28;20402;-78
2021/01/30 08:16:08;;;;;;;10.27;5.57;;;1.00;99.90;;;;;;5018126;28;20049;-77
2021/01/30 08:18:38;;;;;;;9.35;5.75;;;1.00;99.90;;;;;;5023011;28;20056;-79
2021/01/30 08:21:34;;;;;;;11.80;5.68;;;1.00;99.90;;;;;;5020049;28;20068;-79
2021/01/30 08:24:21;;;;;;;10.45;5.50;;;1.00;99.90;;;;;;5024665;28;20048;-77
2021/01/30 08:26:53;;;;;;;8.93;5.05;;;1.00;99.90;;;;;;5025184;28;21576;-77
2021/01/30 08:29:35;;;;;;;8.35;4.78;;;1.10;99.90;;;;;;5020557;28;20507;-78
2021/01/30 08:32:24;;;;;;;12.32;6.30;;;1.10;99.90;;;;;;5023207;28;20060;-77
2021/01/30 08:34:56;;;;;;;10.85;5.60;;;1.10;99.90;;;;;;5021678;28;20053;-77
2021/01/30 08:37:25;;;;;;;11.27;5.13;;;1.10;99.90;;;;;;5018840;28;20432;-77
2021/01/30 08:40:12;;;;;;;9.93;5.00;;;1.10;99.90;;;;;;5026429;28;20063;-76
2021/01/30 08:43:00;;;;;;;11.93;6.20;;;1.10;99.90;;;;;;5022970;28;20132;-77
2021/01/30 08:45:33;;;;;;;10.73;5.47;;;1.10;99.90;;;;;;5021913;28;20476;-76
2021/01/30 08:48:25;;;;;;;13.48;7.18;;;1.10;99.90;;;;;;5020345;28;20037;-77
2021/01/30 08:50:55;;;;;;;11.55;5.55;;;1.20;99.90;;;;;;5022445;28;20049;-77
2021/01/30 08:53:24;;;;;;;11.15;6.45;;;1.20;99.90;;;;;;5020353;28;20124;-76
2021/01/30 08:55:54;;;;;;;14.05;6.63;;;1.20;99.90;;;;;;5027338;28;20053;-78
2021/01/30 08:58:35;;;;;;;13.82;7.47;;;1.30;99.90;;;;;;5010953;28;20051;-77
2021/01/30 09:01:24;;;;;;;9.18;4.85;;;1.30;99.90;;;;;;5018111;28;20065;-76
2021/01/30 09:03:56;;;;;;;14.90;6.53;;;1.30;99.90;;;;;;5007782;28;20420;-77
2021/01/30 09:06:40;;;;;;;11.05;5.90;;;1.40;99.90;;;;;;5015241;28;20471;-76
2021/01/30 09:09:11;;;;;;;;;;;1.40;99.90;;;;;;5014724;28;20465;-77
2021/01/30 09:11:51;;;;;;;14.75;6.53;;;1.40;99.90;;;;;;5016843;28;19931;-76
2021/01/30 09:14:17;;;;;;;10.57;5.50;;;1.50;99.90;;;;;;5015094;28;20394;-77
2021/01/30 09:16:58;;;;;;;12.55;6.43;;;1.50;99.90;;;;;;5014238;28;20053;-78
2021/01/30 09:19:36;;;;;;;10.95;6.25;;;1.60;99.90;;;;;;5029467;28;20049;-76
2021/01/30 09:22:21;;;;;;;11.00;5.75;;;1.60;99.90;;;;;;5011827;28;20878;-77
2021/01/30 09:25:17;;;;;;;14.00;6.95;;;1.70;99.90;;;;;;5008768;28;20053;-77
2021/01/30 09:27:56;;;;;;;;;;;1.70;99.90;;;;;;5018225;28;20069;-76
2021/01/30 09:30:45;;;;;;;12.98;7.40;;;1.60;99.90;;;;;;5018715;28;19925;-76
2021/01/30 09:33:32;;;;;;;11.38;5.82;;;1.60;99.90;;;;;;5020257;28;20051;-77
2021/01/30 09:36:15;;;;;;;11.25;5.97;;;1.60;99.90;;;;;;4996911;28;20109;-77
2021/01/30 09:38:48;;;;;;;9.60;5.25;;;1.60;99.90;;;;;;5023863;28;20052;-77
2021/01/30 09:41:27;;;;;;;8.55;4.43;;;1.60;99.90;;;;;;5021211;28;20060;-77
2021/01/30 09:44:15;;;;;;;9.68;4.68;;;1.70;99.90;;;;;;5021159;28;20435;-77
2021/01/30 09:46:44;;;;;;;8.35;5.00;;;1.70;99.90;;;;;;5015208;28;20045;-77
2021/01/30 09:49:19;;;;;;;10.05;5.28;;;1.80;99.90;;;;;;5027834;28;20408;-78
2021/01/30 09:51:45;;;;;;;9.95;4.95;;;1.90;99.90;;;;;;5026559;28;20049;-78
2021/01/30 09:54:15;;;;;;;12.20;6.20;;;1.90;99.90;;;;;;5026896;28;20051;-77
2021/01/30 09:56:42;;;;;;;9.75;4.97;;;1.90;99.90;;;;;;5026525;28;20049;-79
2021/01/30 09:59:12;;;;;;;12.85;5.90;;;1.90;99.90;;;;;;5023162;28;20060;-79
2021/01/30 10:01:44;;;;;;;10.95;6.35;;;1.90;99.90;;;;;;5021362;28;20063;-77
2021/01/30 10:04:16;;;;;;;13.43;7.57;;;1.80;99.90;;;;;;5016605;28;20073;-76
2021/01/30 10:06:44;;;;;;;11.48;5.90;;;1.80;99.90;;;;;;5020579;28;20481;-77
2021/01/30 10:09:23;;;;;;;11.50;6.47;;;1.80;99.90;;;;;;5021273;28;20408;-77
2021/01/30 10:11:57;;;;;;;13.40;6.70;;;1.80;99.90;;;;;;5021229;28;20045;-77
2021/01/30 10:14:32;;;;;;;14.57;7.00;;;1.90;99.90;;;;;;5018635;28;20045;-76
2021/01/30 10:17:02;;;;;;;13.40;7.50;;;2.00;99.90;;;;;;5019132;28;20057;-76
2021/01/30 10:19:34;;;;;;;11.88;6.68;;;2.00;99.90;;;;;;5017290;28;20053;-77
2021/01/30 10:22:40;;;;;;;27.58;14.75;;;2.00;99.90;;;;;;5020116;28;20478;-77
2021/01/30 10:25:23;;;;;;;14.18;7.53;;;2.00;99.90;;;;;;5021020;28;20045;-76
2021/01/30 10:28:01;;;;;;;19.48;10.13;;;2.00;99.90;;;;;;5019740;28;20162;-78
2021/01/30 10:30:27;;;;;;;16.15;6.72;;;2.00;99.90;;;;;;5019357;28;20481;-79
2021/01/30 10:32:56;;;;;;;12.70;6.78;;;2.10;99.90;;;;;;5025855;28;20138;-78
2021/01/30 10:35:28;;;;;;;13.55;7.35;;;2.20;99.90;;;;;;5042973;28;20073;-78
2021/01/30 10:37:56;;;;;;;13.20;6.82;;;2.30;99.90;;;;;;5024771;28;20113;-78
2021/01/30 10:40:34;;;;;;;14.50;8.00;;;2.40;99.90;;;;;;5017261;28;20075;-79
2021/01/30 10:43:15;;;;;;;13.93;7.10;;;2.50;99.90;;;;;;5008917;28;20542;-80
2021/01/30 10:45:44;;;;;;;13.57;7.35;;;2.50;99.90;;;;;;4997471;28;20037;-76
2021/01/30 10:48:14;;;;;;;13.38;7.50;;;2.40;99.90;;;;;;4998334;28;20358;-76
2021/01/30 10:50:47;;;;;;;14.95;7.53;;;2.40;99.90;;;;;;5015352;28;20045;-76
2021/01/30 10:53:23;;;;;;;13.35;7.40;;;2.40;99.90;;;;;;5015919;28;20049;-76
2021/01/30 10:55:50;;;;;;;12.52;6.93;;;2.40;99.90;;;;;;5016822;28;20041;-76
2021/01/30 10:58:25;;;;;;;15.70;8.45;;;2.50;99.90;;;;;;5018602;28;20063;-77
2021/01/30 11:01:09;;;;;;;12.93;6.88;;;2.50;99.90;;;;;;5018516;28;20064;-76
2021/01/30 11:03:41;;;;;;;15.35;8.38;;;2.60;99.90;;;;;;5010535;28;20131;-76
2021/01/30 11:06:41;;;;;;;14.48;7.75;;;2.70;99.90;;;;;;5016563;28;20326;-78
2021/01/30 11:09:12;;;;;;;14.98;7.32;;;2.90;99.90;;;;;;5023142;28;20045;-78
2021/01/30 11:11:39;;;;;;;17.08;7.65;;;3.20;99.90;;;;;;5023433;28;20056;-77
2021/01/30 11:14:33;;;;;;;13.43;7.07;;;3.30;99.90;;;;;;5011723;28;20053;-77
2021/01/30 11:17:02;;;;;;;16.50;8.45;;;3.40;99.90;;;;;;5020693;28;20128;-76
2021/01/30 11:19:31;;;;;;;14.43;7.57;;;3.60;99.90;;;;;;5016971;28;20049;-77
2021/01/30 11:22:09;;;;;;;14.73;7.82;;;3.70;99.90;;;;;;5024522;28;20053;-77
2021/01/30 11:24:47;;;;;;;14.00;7.47;;;3.80;99.90;;;;;;5011736;28;20049;-77
2021/01/30 11:27:40;;;;;;;16.27;7.75;;;3.90;99.90;;;;;;5021605;28;20042;-77
2021/01/30 11:30:15;;;;;;;14.30;7.85;;;3.90;99.90;;;;;;5017541;28;20041;-78
2021/01/30 11:33:17;;;;;;;17.70;8.68;;;3.70;99.90;;;;;;5022158;28;20052;-77
2021/01/30 11:35:46;;;;;;;14.00;7.50;;;3.50;99.90;;;;;;5013372;28;20042;-78
2021/01/30 11:38:16;;;;;;;16.42;8.02;;;3.40;99.90;;;;;;5026267;28;20046;-78
2021/01/30 11:40:45;;;;;;;16.83;7.80;;;3.30;99.90;;;;;;5005603;28;20046;-77
2021/01/30 11:43:13;;;;;;;18.30;8.93;;;3.30;99.90;;;;;;5013280;28;20060;-78
2021/01/30 11:45:39;;;;;;;16.33;8.60;;;3.30;99.90;;;;;;5018994;28;20492;-78
2021/01/30 11:48:06;;;;;;;17.25;8.70;;;3.30;99.90;;;;;;5007583;28;20496;-77
2021/01/30 11:50:32;;;;;;;14.15;7.55;;;3.30;99.90;;;;;;5013824;28;20053;-77
2021/01/30 11:53:07;;;;;;;17.92;10.15;;;3.30;99.90;;;;;;5022768;28;20052;-77
2021/01/30 11:55:34;;;;;;;;;;;3.20;99.90;;;;;;5003436;28;20057;-78
2021/01/30 11:58:00;;;;;;;16.95;8.57;;;3.30;99.90;;;;;;5021781;28;19932;-77
2021/01/30 12:00:27;;;;;;;16.13;8.38;;;3.30;99.90;;;;;;5005630;28;20056;-78
2021/01/30 12:02:55;;;;;;;18.15;9.75;;;3.20;99.90;;;;;;5010833;28;20060;-78
2021/01/30 12:05:21;;;;;;;16.98;8.95;;;3.20;99.90;;;;;;5021804;28;20140;-77
2021/01/30 12:07:50;;;;;;;18.63;9.68;;;3.20;99.90;;;;;;5003516;28;20110;-78
2021/01/30 12:10:18;;;;;;;16.10;8.35;;;3.20;99.90;;;;;;5023557;28;20069;-80
2021/01/30 12:12:46;;;;;;;23.55;9.85;;;3.10;99.90;;;;;;5001774;28;20137;-79
2021/01/30 12:15:14;;;;;;;17.65;9.07;;;3.10;99.90;;;;;;5013087;28;20150;-78
2021/01/30 12:17:46;;;;;;;18.42;8.60;;;3.10;99.90;;;;;;5013003;28;20068;-78
2021/01/30 12:20:25;;;;;;;22.23;9.80;;;3.20;99.90;;;;;;5020575;28;20053;-77
2021/01/30 12:22:56;;;;;;;16.45;8.50;;;3.20;99.90;;;;;;5002971;28;20123;-77
2021/01/30 12:25:23;;;;;;;15.65;8.38;;;3.20;99.90;;;;;;5021526;28;20041;-77
2021/01/30 12:27:55;;;;;;;17.92;9.07;;;3.30;99.90;;;;;;5010743;28;20051;-76
2021/01/30 12:30:24;;;;;;;17.30;8.30;;;3.30;99.90;;;;;;5006625;28;20109;-77
2021/01/30 12:32:51;;;;;;;17.42;8.85;;;3.30;99.90;;;;;;4976926;28;20046;-78
2021/01/30 12:35:22;;;;;;;15.07;8.02;;;3.30;99.90;;;;;;5003972;28;20053;-78
2021/01/30 12:37:50;;;;;;;17.00;9.43;;;3.30;99.90;;;;;;4991994;28;20054;-77
2021/01/30 12:40:19;;;;;;;19.08;9.63;;;3.30;99.90;;;;;;4985098;28;20050;-79
2021/01/30 12:42:46;;;;;;;20.88;10.50;;;3.20;99.90;;;;;;5002106;28;20049;-79
2021/01/30 12:45:13;;;;;;;18.90;9.35;;;3.20;99.90;;;;;;4970161;28;20046;-79
2021/01/30 12:47:41;;;;;;;22.00;10.65;;;3.20;99.90;;;;;;4978345;28;20049;-78
2021/01/30 12:50:12;;;;;;;19.65;9.13;;;3.10;99.90;;;;;;5001241;28;20073;-77
2021/01/30 12:52:38;;;;;;;19.02;9.95;;;3.10;99.90;;;;;;5001584;28;20061;-76
2021/01/30 12:55:05;;;;;;;16.70;8.20;;;3.00;99.90;;;;;;4996406;28;20493;-77
2021/01/30 12:57:31;;;;;;;19.90;9.07;;;2.90;99.90;;;;;;4975887;28;20136;-78
2021/01/30 12:59:57;;;;;;;21.98;10.25;;;2.90;99.90;;;;;;4990096;28;20050;-76
2021/01/30 13:02:23;;;;;;;20.77;10.07;;;2.80;99.90;;;;;;4996742;28;20061;-77
2021/01/30 13:04:50;;;;;;;19.20;9.40;;;2.70;99.90;;;;;;4996635;28;20057;-77
2021/01/30 13:07:17;;;;;;;19.45;9.85;;;2.60;99.90;;;;;;4998153;28;20105;-77
2021/01/30 13:09:43;;;;;;;21.75;10.52;;;2.50;99.90;;;;;;4978210;28;20069;-77
2021/01/30 13:12:10;;;;;;;19.88;10.10;;;2.50;99.90;;;;;;5000223;28;20062;-77
2021/01/30 13:14:40;;;;;;;19.70;10.63;;;2.40;99.90;;;;;;4991202;28;20073;-77
2021/01/30 13:17:07;;;;;;;21.20;10.65;;;2.40;99.90;;;;;;4977590;28;20057;-77
2021/01/30 13:19:37;;;;;;;18.55;9.45;;;2.30;99.90;;;;;;5004248;28;20054;-78
2021/01/30 13:22:03;;;;;;;20.83;9.98;;;2.30;99.90;;;;;;4980724;28;20140;-77
2021/01/30 13:24:29;;;;;;;46.40;19.65;;;2.20;99.90;;;;;;5000913;28;20132;-77
2021/01/30 13:27:03;;;;;;;20.83;10.43;;;2.20;99.90;;;;;;4999666;28;20057;-76
2021/01/30 13:29:31;;;;;;;24.98;12.10;;;2.20;99.90;;;;;;4983248;28;20049;-77
2021/01/30 13:31:58;;;;;;;19.45;8.57;;;2.10;99.90;;;;;;5000425;28;20053;-77